Main page
METAR-TAF:

METAR-TAF

Airports :

Hohn Air Base

Hohn, Germany

latitude: 54-19N, longitude: 009-32E, elevation: 12 m

Current weather observation

The report was made 55 minutes ago, at 04:20 UTC
Wind 2 kt from variable directions
Temperature 9°C
Humidity 93%
Pressure 1022 hPa
Visibility 10 km or more
Few clouds at a height of 2500 ft
Scattered clouds at a height of 22000 ft

METAR: ETNH 200420Z VRB02KT 9999 FEW025 SCT220 09/08 Q1022 BLU+BLU+

Time: 07:15 (05:15 UTC)

Forecast

The report was made 1 hour and 6 minutes ago, at 04:09 UTC
Forecast valid from 20 at 05 UTC to 20 at 14 UTC
Wind 8 kt from the West/Southwest
Visibility 10 km or more
Scattered clouds at a height of 2000 ft
Broken clouds at a height of 34000 ft
Probability 30%
from 20 at 05 UTC to 20 at 10 UTC
Wind 5 kt from the Southwest
Visibility 10 km or more
Broken clouds at a height of 2000 ft
Broken clouds at a height of 30000 ft

TAF: ETNH 200409Z 2005/2014 25008KT 9999 NSW SCT020 BKN340 PROB30 2005/2010 23005KT 9999 NSW BKN020 BKN300

Weather observations and forecasts of more than 4000 airports (METAR and TAF reports).

The available stations are represented by yellow and red dots on the map.

Hover mouse over dot to see the name of the station.

Then click to see weather observations and forecasts.

To change the map : click on the green buttons with a black cross to zoom in, on the green button with a dash to zoom out, or on the green arrows for adjacent maps.


METAR-TAF: